sensor_id;sensor_type;location;lat;lon;timestamp;temperature;humidity
52879;DHT22;38747;53.140;6.498;2022-10-17T00:00:37;11.40;99.90
52879;DHT22;38747;53.140;6.498;2022-10-17T00:03:02;11.40;99.90
52879;DHT22;38747;53.140;6.498;2022-10-17T00:05:28;11.30;99.90
52879;DHT22;38747;53.140;6.498;2022-10-17T00:07:54;11.30;99.90
52879;DHT22;38747;53.140;6.498;2022-10-17T00:10:20;11.30;99.90
52879;DHT22;38747;53.140;6.498;2022-10-17T00:12:46;11.30;99.90
52879;DHT22;38747;53.140;6.498;2022-10-17T00:15:15;11.30;99.90
52879;DHT22;38747;53.140;6.498;2022-10-17T00:17:40;11.30;99.90
52879;DHT22;38747;53.140;6.498;2022-10-17T00:20:07;11.30;99.90
52879;DHT22;38747;53.140;6.498;2022-10-17T00:22:32;11.30;99.90
52879;DHT22;38747;53.140;6.498;2022-10-17T00:24:58;11.20;99.90
52879;DHT22;38747;53.140;6.498;2022-10-17T00:27:24;11.20;99.90
52879;DHT22;38747;53.140;6.498;2022-10-17T00:29:50;11.30;99.90
52879;DHT22;38747;53.140;6.498;2022-10-17T00:32:17;11.30;99.90
52879;DHT22;38747;53.140;6.498;2022-10-17T00:34:42;11.30;99.90
52879;DHT22;38747;53.140;6.498;2022-10-17T00:37:08;11.30;99.90
52879;DHT22;38747;53.140;6.498;2022-10-17T00:39:34;11.30;99.90
52879;DHT22;38747;53.140;6.498;2022-10-17T00:41:59;11.30;99.90
52879;DHT22;38747;53.140;6.498;2022-10-17T00:46:58;11.40;99.90
52879;DHT22;38747;53.140;6.498;2022-10-17T00:49:26;11.40;99.90
52879;DHT22;38747;53.140;6.498;2022-10-17T00:52:15;11.40;99.90
52879;DHT22;38747;53.140;6.498;2022-10-17T00:54:48;11.50;99.90
52879;DHT22;38747;53.140;6.498;2022-10-17T00:57:15;11.50;99.90
52879;DHT22;38747;53.140;6.498;2022-10-17T00:59:42;11.50;99.90
52879;DHT22;38747;53.140;6.498;2022-10-17T01:02:12;11.60;99.90
52879;DHT22;38747;53.140;6.498;2022-10-17T01:04:41;11.50;99.90
52879;DHT22;38747;53.140;6.498;2022-10-17T01:07:08;11.60;99.90
52879;DHT22;38747;53.140;6.498;2022-10-17T01:09:33;11.60;99.90
52879;DHT22;38747;53.140;6.498;2022-10-17T01:12:23;11.60;99.90
52879;DHT22;38747;53.140;6.498;2022-10-17T01:15:04;11.60;99.90
52879;DHT22;38747;53.140;6.498;2022-10-17T01:17:52;11.60;99.90
52879;DHT22;38747;53.140;6.498;2022-10-17T01:23:26;11.70;99.90
52879;DHT22;38747;53.140;6.498;2022-10-17T01:29:26;11.80;99.90
52879;DHT22;38747;53.140;6.498;2022-10-17T01:34:44;11.90;99.90
52879;DHT22;38747;53.140;6.498;2022-10-17T01:37:33;11.90;99.90
52879;DHT22;38747;53.140;6.498;2022-10-17T01:40:08;12.00;99.90
52879;DHT22;38747;53.140;6.498;2022-10-17T01:43:06;12.00;99.90
52879;DHT22;38747;53.140;6.498;2022-10-17T01:45:35;12.00;99.90
52879;DHT22;38747;53.140;6.498;2022-10-17T01:48:07;12.10;99.90
52879;DHT22;38747;53.140;6.498;2022-10-17T01:50:40;12.00;99.90
52879;DHT22;38747;53.140;6.498;2022-10-17T01:53:12;12.10;99.90
52879;DHT22;38747;53.140;6.498;2022-10-17T01:55:41;12.10;99.90
52879;DHT22;38747;53.140;6.498;2022-10-17T01:58:19;12.10;99.90
52879;DHT22;38747;53.140;6.498;2022-10-17T02:00:46;12.10;99.90
52879;DHT22;38747;53.140;6.498;2022-10-17T02:03:16;12.10;99.90
52879;DHT22;38747;53.140;6.498;2022-10-17T02:05:43;12.10;99.90
52879;DHT22;38747;53.140;6.498;2022-10-17T02:08:10;12.00;99.90
52879;DHT22;38747;53.140;6.498;2022-10-17T02:16:08;12.00;99.90
52879;DHT22;38747;53.140;6.498;2022-10-17T02:21:32;12.00;99.90
52879;DHT22;38747;53.140;6.498;2022-10-17T02:27:07;12.00;99.90
52879;DHT22;38747;53.140;6.498;2022-10-17T02:29:43;11.90;99.90
52879;DHT22;38747;53.140;6.498;2022-10-17T02:32:16;12.00;99.90
52879;DHT22;38747;53.140;6.498;2022-10-17T02:34:50;12.00;99.90
52879;DHT22;38747;53.140;6.498;2022-10-17T02:37:20;12.00;99.90
52879;DHT22;38747;53.140;6.498;2022-10-17T02:39:47;12.00;99.90
52879;DHT22;38747;53.140;6.498;2022-10-17T02:42:15;11.90;99.90
52879;DHT22;38747;53.140;6.498;2022-10-17T02:44:43;11.90;99.90
52879;DHT22;38747;53.140;6.498;2022-10-17T02:49:43;11.90;99.90
52879;DHT22;38747;53.140;6.498;2022-10-17T02:55:08;11.90;99.90
52879;DHT22;38747;53.140;6.498;2022-10-17T02:57:43;11.90;99.90
52879;DHT22;38747;53.140;6.498;2022-10-17T03:00:12;11.90;99.90
52879;DHT22;38747;53.140;6.498;2022-10-17T03:02:44;11.90;99.90
52879;DHT22;38747;53.140;6.498;2022-10-17T03:05:12;11.90;99.90
52879;DHT22;38747;53.140;6.498;2022-10-17T03:07:38;12.00;99.90
52879;DHT22;38747;53.140;6.498;2022-10-17T03:10:04;12.00;99.90
52879;DHT22;38747;53.140;6.498;2022-10-17T03:12:29;12.00;99.90
52879;DHT22;38747;53.140;6.498;2022-10-17T03:14:55;12.00;99.90
52879;DHT22;38747;53.140;6.498;2022-10-17T03:17:21;12.00;99.90
52879;DHT22;38747;53.140;6.498;2022-10-17T03:19:46;12.10;99.90
52879;DHT22;38747;53.140;6.498;2022-10-17T03:22:12;12.10;99.90
52879;DHT22;38747;53.140;6.498;2022-10-17T03:24:37;12.10;99.90
52879;DHT22;38747;53.140;6.498;2022-10-17T03:27:03;12.10;99.90
52879;DHT22;38747;53.140;6.498;2022-10-17T03:29:29;12.10;99.90
52879;DHT22;38747;53.140;6.498;2022-10-17T03:31:54;12.10;99.90
52879;DHT22;38747;53.140;6.498;2022-10-17T03:34:20;12.10;99.90
52879;DHT22;38747;53.140;6.498;2022-10-17T03:36:46;12.10;99.90
52879;DHT22;38747;53.140;6.498;2022-10-17T03:39:12;12.20;99.90
52879;DHT22;38747;53.140;6.498;2022-10-17T03:41:37;12.10;99.90
52879;DHT22;38747;53.140;6.498;2022-10-17T03:44:03;12.20;99.90
52879;DHT22;38747;53.140;6.498;2022-10-17T03:46:28;12.20;99.90
52879;DHT22;38747;53.140;6.498;2022-10-17T03:48:54;12.20;99.90
52879;DHT22;38747;53.140;6.498;2022-10-17T03:51:20;12.20;99.90
52879;DHT22;38747;53.140;6.498;2022-10-17T03:53:46;12.20;99.90
52879;DHT22;38747;53.140;6.498;2022-10-17T03:56:20;12.20;99.90
52879;DHT22;38747;53.140;6.498;2022-10-17T03:58:46;12.20;99.90
52879;DHT22;38747;53.140;6.498;2022-10-17T04:01:14;12.20;99.90
52879;DHT22;38747;53.140;6.498;2022-10-17T04:03:40;12.20;99.90
52879;DHT22;38747;53.140;6.498;2022-10-17T04:06:06;12.20;99.90
52879;DHT22;38747;53.140;6.498;2022-10-17T04:08:32;12.20;99.90
52879;DHT22;38747;53.140;6.498;2022-10-17T04:10:59;12.20;99.90
52879;DHT22;38747;53.140;6.498;2022-10-17T04:13:25;12.20;99.90
52879;DHT22;38747;53.140;6.498;2022-10-17T04:16:02;12.20;99.90
52879;DHT22;38747;53.140;6.498;2022-10-17T04:18:29;12.20;99.90
52879;DHT22;38747;53.140;6.498;2022-10-17T04:20:55;12.30;99.90
52879;DHT22;38747;53.140;6.498;2022-10-17T04:23:21;12.30;99.90
52879;DHT22;38747;53.140;6.498;2022-10-17T04:25:47;12.30;99.90
52879;DHT22;38747;53.140;6.498;2022-10-17T04:28:13;12.40;99.90
52879;DHT22;38747;53.140;6.498;2022-10-17T04:30:39;12.40;99.90
52879;DHT22;38747;53.140;6.498;2022-10-17T04:33:05;12.40;99.90
52879;DHT22;38747;53.140;6.498;2022-10-17T04:35:31;12.40;99.90
52879;DHT22;38747;53.140;6.498;2022-10-17T04:37:56;12.50;99.90
52879;DHT22;38747;53.140;6.498;2022-10-17T04:40:22;12.50;99.90
52879;DHT22;38747;53.140;6.498;2022-10-17T04:42:48;12.50;99.90
52879;DHT22;38747;53.140;6.498;2022-10-17T04:45:13;12.50;99.90
52879;DHT22;38747;53.140;6.498;2022-10-17T04:47:39;12.50;99.90
52879;DHT22;38747;53.140;6.498;2022-10-17T04:50:08;12.50;99.90
52879;DHT22;38747;53.140;6.498;2022-10-17T04:52:34;12.60;99.90
52879;DHT22;38747;53.140;6.498;2022-10-17T04:55:05;12.60;99.90
52879;DHT22;38747;53.140;6.498;2022-10-17T04:57:33;12.60;99.90
52879;DHT22;38747;53.140;6.498;2022-10-17T04:59:59;12.70;99.90
52879;DHT22;38747;53.140;6.498;2022-10-17T05:02:25;12.70;99.90
52879;DHT22;38747;53.140;6.498;2022-10-17T05:04:51;12.70;99.90
52879;DHT22;38747;53.140;6.498;2022-10-17T05:07:16;12.70;99.90
52879;DHT22;38747;53.140;6.498;2022-10-17T05:09:42;12.70;99.90
52879;DHT22;38747;53.140;6.498;2022-10-17T05:12:07;12.70;99.90
52879;DHT22;38747;53.140;6.498;2022-10-17T05:14:33;12.70;99.90
52879;DHT22;38747;53.140;6.498;2022-10-17T05:16:58;12.70;99.90
52879;DHT22;38747;53.140;6.498;2022-10-17T05:19:24;12.80;99.90
52879;DHT22;38747;53.140;6.498;2022-10-17T05:21:50;12.80;99.90
52879;DHT22;38747;53.140;6.498;2022-10-17T05:24:15;12.80;99.90
52879;DHT22;38747;53.140;6.498;2022-10-17T05:26:41;12.90;99.90
52879;DHT22;38747;53.140;6.498;2022-10-17T05:29:06;12.90;99.90
52879;DHT22;38747;53.140;6.498;2022-10-17T05:31:32;12.90;99.90
52879;DHT22;38747;53.140;6.498;2022-10-17T05:34:02;12.90;99.90
52879;DHT22;38747;53.140;6.498;2022-10-17T05:36:27;13.00;99.90
52879;DHT22;38747;53.140;6.498;2022-10-17T05:38:53;13.00;99.90
52879;DHT22;38747;53.140;6.498;2022-10-17T05:41:19;13.00;99.90
52879;DHT22;38747;53.140;6.498;2022-10-17T05:43:45;13.00;99.90
52879;DHT22;38747;53.140;6.498;2022-10-17T05:46:10;13.10;99.90
52879;DHT22;38747;53.140;6.498;2022-10-17T05:48:36;13.10;99.90
52879;DHT22;38747;53.140;6.498;2022-10-17T05:51:07;13.20;99.90
52879;DHT22;38747;53.140;6.498;2022-10-17T05:53:35;13.20;99.90
52879;DHT22;38747;53.140;6.498;2022-10-17T05:56:03;13.30;99.90
52879;DHT22;38747;53.140;6.498;2022-10-17T05:58:30;13.40;99.90
52879;DHT22;38747;53.140;6.498;2022-10-17T06:00:58;13.40;99.90
52879;DHT22;38747;53.140;6.498;2022-10-17T06:03:24;13.40;99.90
52879;DHT22;38747;53.140;6.498;2022-10-17T06:05:50;13.40;99.90
52879;DHT22;38747;53.140;6.498;2022-10-17T06:08:17;13.50;99.90
52879;DHT22;38747;53.140;6.498;2022-10-17T06:10:43;13.50;99.90
52879;DHT22;38747;53.140;6.498;2022-10-17T06:13:08;13.50;99.90
52879;DHT22;38747;53.140;6.498;2022-10-17T06:15:34;13.50;99.90
52879;DHT22;38747;53.140;6.498;2022-10-17T06:17:59;13.50;99.90
52879;DHT22;38747;53.140;6.498;2022-10-17T06:20:25;13.60;99.90
52879;DHT22;38747;53.140;6.498;2022-10-17T06:22:50;13.50;99.90
52879;DHT22;38747;53.140;6.498;2022-10-17T06:25:16;13.60;99.90
52879;DHT22;38747;53.140;6.498;2022-10-17T06:27:42;13.60;99.90
52879;DHT22;38747;53.140;6.498;2022-10-17T06:30:07;13.60;99.90
52879;DHT22;38747;53.140;6.498;2022-10-17T06:32:33;13.60;99.90
52879;DHT22;38747;53.140;6.498;2022-10-17T06:34:59;13.60;99.90
52879;DHT22;38747;53.140;6.498;2022-10-17T06:37:24;13.70;99.90
52879;DHT22;38747;53.140;6.498;2022-10-17T06:39:50;13.70;99.90
52879;DHT22;38747;53.140;6.498;2022-10-17T06:42:16;13.70;99.90
52879;DHT22;38747;53.140;6.498;2022-10-17T06:44:41;13.70;99.90
52879;DHT22;38747;53.140;6.498;2022-10-17T06:47:08;13.80;99.90
52879;DHT22;38747;53.140;6.498;2022-10-17T06:49:34;13.80;99.90
52879;DHT22;38747;53.140;6.498;2022-10-17T06:52:00;13.80;99.90
52879;DHT22;38747;53.140;6.498;2022-10-17T06:54:25;13.90;99.90
52879;DHT22;38747;53.140;6.498;2022-10-17T06:56:52;14.00;99.90
52879;DHT22;38747;53.140;6.498;2022-10-17T06:59:18;14.00;99.90
52879;DHT22;38747;53.140;6.498;2022-10-17T07:01:43;14.00;99.90
52879;DHT22;38747;53.140;6.498;2022-10-17T07:04:09;14.10;99.90
52879;DHT22;38747;53.140;6.498;2022-10-17T07:06:35;14.10;99.90
52879;DHT22;38747;53.140;6.498;2022-10-17T07:09:00;14.10;99.90
52879;DHT22;38747;53.140;6.498;2022-10-17T07:11:27;14.20;99.90
52879;DHT22;38747;53.140;6.498;2022-10-17T07:13:52;14.10;99.90
52879;DHT22;38747;53.140;6.498;2022-10-17T07:16:18;14.20;99.90
52879;DHT22;38747;53.140;6.498;2022-10-17T07:18:48;14.30;99.90
52879;DHT22;38747;53.140;6.498;2022-10-17T07:21:14;14.30;99.90
52879;DHT22;38747;53.140;6.498;2022-10-17T07:23:40;14.40;99.90
52879;DHT22;38747;53.140;6.498;2022-10-17T07:26:09;14.50;99.90
52879;DHT22;38747;53.140;6.498;2022-10-17T07:28:37;14.50;99.90
52879;DHT22;38747;53.140;6.498;2022-10-17T07:31:04;14.60;99.90
52879;DHT22;38747;53.140;6.498;2022-10-17T07:33:30;14.60;99.90
52879;DHT22;38747;53.140;6.498;2022-10-17T07:35:59;14.70;99.90
52879;DHT22;38747;53.140;6.498;2022-10-17T07:38:28;14.80;99.90
52879;DHT22;38747;53.140;6.498;2022-10-17T07:40:55;14.90;99.90
52879;DHT22;38747;53.140;6.498;2022-10-17T07:43:22;14.90;99.90
52879;DHT22;38747;53.140;6.498;2022-10-17T07:45:48;14.90;99.90
52879;DHT22;38747;53.140;6.498;2022-10-17T07:48:13;14.90;99.90
52879;DHT22;38747;53.140;6.498;2022-10-17T07:50:39;15.00;99.90
52879;DHT22;38747;53.140;6.498;2022-10-17T07:53:05;15.00;99.90
52879;DHT22;38747;53.140;6.498;2022-10-17T07:55:30;15.00;99.90
52879;DHT22;38747;53.140;6.498;2022-10-17T07:57:56;15.10;99.90
52879;DHT22;38747;53.140;6.498;2022-10-17T08:00:22;15.20;99.90
52879;DHT22;38747;53.140;6.498;2022-10-17T08:02:48;15.30;99.90
52879;DHT22;38747;53.140;6.498;2022-10-17T08:05:15;15.40;99.90
52879;DHT22;38747;53.140;6.498;2022-10-17T08:07:40;15.40;99.90
52879;DHT22;38747;53.140;6.498;2022-10-17T08:10:06;15.60;99.90
52879;DHT22;38747;53.140;6.498;2022-10-17T08:12:32;15.60;99.90
52879;DHT22;38747;53.140;6.498;2022-10-17T08:15:00;15.70;99.90
52879;DHT22;38747;53.140;6.498;2022-10-17T08:17:25;15.70;99.90
52879;DHT22;38747;53.140;6.498;2022-10-17T08:19:51;15.70;99.90
52879;DHT22;38747;53.140;6.498;2022-10-17T08:22:17;15.80;99.90
52879;DHT22;38747;53.140;6.498;2022-10-17T08:24:42;15.80;99.90
52879;DHT22;38747;53.140;6.498;2022-10-17T08:27:09;15.80;99.90
52879;DHT22;38747;53.140;6.498;2022-10-17T08:29:38;15.90;99.90
52879;DHT22;38747;53.140;6.498;2022-10-17T08:32:04;15.90;99.90
52879;DHT22;38747;53.140;6.498;2022-10-17T08:34:29;16.00;99.90
52879;DHT22;38747;53.140;6.498;2022-10-17T08:36:55;16.00;99.90
52879;DHT22;38747;53.140;6.498;2022-10-17T08:39:20;16.10;99.90
52879;DHT22;38747;53.140;6.498;2022-10-17T08:42:07;16.10;99.90
52879;DHT22;38747;53.140;6.498;2022-10-17T08:47:40;16.20;99.90
52879;DHT22;38747;53.140;6.498;2022-10-17T08:50:16;16.20;99.90
52879;DHT22;38747;53.140;6.498;2022-10-17T08:52:51;16.20;99.90
52879;DHT22;38747;53.140;6.498;2022-10-17T08:55:35;16.30;99.90
52879;DHT22;38747;53.140;6.498;2022-10-17T08:58:01;16.30;99.90
52879;DHT22;38747;53.140;6.498;2022-10-17T09:00:29;16.40;99.90
52879;DHT22;38747;53.140;6.498;2022-10-17T09:03:25;16.40;99.90
52879;DHT22;38747;53.140;6.498;2022-10-17T09:20:17;16.40;99.90
52879;DHT22;38747;53.140;6.498;2022-10-17T09:22:51;16.40;99.90
52879;DHT22;38747;53.140;6.498;2022-10-17T09:25:20;16.40;99.90
52879;DHT22;38747;53.140;6.498;2022-10-17T09:27:50;16.50;99.90
52879;DHT22;38747;53.140;6.498;2022-10-17T09:33:15;16.60;99.90
52879;DHT22;38747;53.140;6.498;2022-10-17T09:35:44;16.70;99.90
52879;DHT22;38747;53.140;6.498;2022-10-17T09:38:19;16.60;99.90
52879;DHT22;38747;53.140;6.498;2022-10-17T09:40:56;16.70;99.90
52879;DHT22;38747;53.140;6.498;2022-10-17T09:43:23;16.60;99.90
52879;DHT22;38747;53.140;6.498;2022-10-17T09:46:07;16.70;99.90
52879;DHT22;38747;53.140;6.498;2022-10-17T09:48:45;16.70;99.90
52879;DHT22;38747;53.140;6.498;2022-10-17T09:51:13;16.70;99.90
52879;DHT22;38747;53.140;6.498;2022-10-17T09:53:44;16.70;99.90
52879;DHT22;38747;53.140;6.498;2022-10-17T09:56:15;16.60;99.90
52879;DHT22;38747;53.140;6.498;2022-10-17T09:58:43;16.60;99.90
52879;DHT22;38747;53.140;6.498;2022-10-17T10:01:19;16.50;99.90
52879;DHT22;38747;53.140;6.498;2022-10-17T10:03:46;16.40;99.90
52879;DHT22;38747;53.140;6.498;2022-10-17T10:06:19;16.40;99.90
52879;DHT22;38747;53.140;6.498;2022-10-17T10:08:52;16.30;99.90
52879;DHT22;38747;53.140;6.498;2022-10-17T10:11:22;16.30;99.90
52879;DHT22;38747;53.140;6.498;2022-10-17T10:13:49;16.20;99.90
52879;DHT22;38747;53.140;6.498;2022-10-17T10:18:43;16.20;99.90
52879;DHT22;38747;53.140;6.498;2022-10-17T10:21:21;16.10;99.90
52879;DHT22;38747;53.140;6.498;2022-10-17T10:24:11;16.10;99.90
52879;DHT22;38747;53.140;6.498;2022-10-17T10:26:40;16.10;99.90
52879;DHT22;38747;53.140;6.498;2022-10-17T10:31:45;16.10;99.90
52879;DHT22;38747;53.140;6.498;2022-10-17T10:34:19;16.00;99.90
52879;DHT22;38747;53.140;6.498;2022-10-17T10:37:15;16.00;99.90
52879;DHT22;38747;53.140;6.498;2022-10-17T10:39:48;16.00;99.90
52879;DHT22;38747;53.140;6.498;2022-10-17T10:42:38;16.00;99.90
52879;DHT22;38747;53.140;6.498;2022-10-17T10:47:55;16.00;99.90
52879;DHT22;38747;53.140;6.498;2022-10-17T10:50:42;16.00;99.90
52879;DHT22;38747;53.140;6.498;2022-10-17T10:53:31;16.00;99.90
52879;DHT22;38747;53.140;6.498;2022-10-17T11:02:01;16.00;99.90
52879;DHT22;38747;53.140;6.498;2022-10-17T11:04:48;16.00;99.90
52879;DHT22;38747;53.140;6.498;2022-10-17T11:12:58;16.10;99.90
52879;DHT22;38747;53.140;6.498;2022-10-17T11:18:44;16.10;99.90
52879;DHT22;38747;53.140;6.498;2022-10-17T11:24:05;16.20;99.90
52879;DHT22;38747;53.140;6.498;2022-10-17T11:26:34;16.20;99.90
52879;DHT22;38747;53.140;6.498;2022-10-17T11:29:03;16.20;99.90
52879;DHT22;38747;53.140;6.498;2022-10-17T11:31:35;16.20;99.90
52879;DHT22;38747;53.140;6.498;2022-10-17T11:34:20;16.20;99.90
52879;DHT22;38747;53.140;6.498;2022-10-17T11:36:49;16.20;99.90
52879;DHT22;38747;53.140;6.498;2022-10-17T11:42:10;16.20;99.90
52879;DHT22;38747;53.140;6.498;2022-10-17T11:44:39;16.20;99.90
52879;DHT22;38747;53.140;6.498;2022-10-17T11:49:49;16.20;99.90
52879;DHT22;38747;53.140;6.498;2022-10-17T11:52:37;16.20;99.90
52879;DHT22;38747;53.140;6.498;2022-10-17T11:55:21;16.20;99.90
52879;DHT22;38747;53.140;6.498;2022-10-17T12:03:33;16.20;99.90
52879;DHT22;38747;53.140;6.498;2022-10-17T12:09:03;16.20;99.90
52879;DHT22;38747;53.140;6.498;2022-10-17T12:16:57;16.30;99.90
52879;DHT22;38747;53.140;6.498;2022-10-17T12:19:25;16.40;99.90
52879;DHT22;38747;53.140;6.498;2022-10-17T12:24:58;16.50;99.90
52879;DHT22;38747;53.140;6.498;2022-10-17T12:27:43;16.70;99.90
52879;DHT22;38747;53.140;6.498;2022-10-17T12:30:24;16.70;99.90
52879;DHT22;38747;53.140;6.498;2022-10-17T12:32:58;16.60;99.90
52879;DHT22;38747;53.140;6.498;2022-10-17T12:35:26;16.70;99.90
52879;DHT22;38747;53.140;6.498;2022-10-17T12:43:00;16.70;99.90
52879;DHT22;38747;53.140;6.498;2022-10-17T12:46:01;16.60;99.90
52879;DHT22;38747;53.140;6.498;2022-10-17T12:56:12;16.50;99.90
52879;DHT22;38747;53.140;6.498;2022-10-17T12:58:43;16.50;99.90
52879;DHT22;38747;53.140;6.498;2022-10-17T13:01:20;16.40;99.90
52879;DHT22;38747;53.140;6.498;2022-10-17T13:03:48;16.40;99.90
52879;DHT22;38747;53.140;6.498;2022-10-17T13:06:25;16.40;99.90
52879;DHT22;38747;53.140;6.498;2022-10-17T13:09:04;16.30;99.90
52879;DHT22;38747;53.140;6.498;2022-10-17T13:11:34;16.30;99.90
52879;DHT22;38747;53.140;6.498;2022-10-17T13:14:02;16.20;99.90
52879;DHT22;38747;53.140;6.498;2022-10-17T13:16:37;16.20;99.90
52879;DHT22;38747;53.140;6.498;2022-10-17T13:19:15;16.20;99.90
52879;DHT22;38747;53.140;6.498;2022-10-17T13:24:28;16.10;99.90
52879;DHT22;38747;53.140;6.498;2022-10-17T13:26:55;16.00;99.90
52879;DHT22;38747;53.140;6.498;2022-10-17T13:29:20;16.00;99.90
52879;DHT22;38747;53.140;6.498;2022-10-17T13:31:57;16.00;99.90
52879;DHT22;38747;53.140;6.498;2022-10-17T13:34:26;16.00;99.90
52879;DHT22;38747;53.140;6.498;2022-10-17T13:36:54;15.90;99.90
52879;DHT22;38747;53.140;6.498;2022-10-17T13:39:26;15.90;99.90
52879;DHT22;38747;53.140;6.498;2022-10-17T13:41:54;15.90;99.90
52879;DHT22;38747;53.140;6.498;2022-10-17T13:44:23;15.80;99.90
52879;DHT22;38747;53.140;6.498;2022-10-17T13:46:49;15.80;99.90
52879;DHT22;38747;53.140;6.498;2022-10-17T13:49:20;15.70;99.90
52879;DHT22;38747;53.140;6.498;2022-10-17T13:51:50;15.70;99.90
52879;DHT22;38747;53.140;6.498;2022-10-17T13:54:42;15.60;99.90
52879;DHT22;38747;53.140;6.498;2022-10-17T13:57:34;15.60;99.90
52879;DHT22;38747;53.140;6.498;2022-10-17T14:00:02;15.60;99.90
52879;DHT22;38747;53.140;6.498;2022-10-17T14:02:32;15.60;99.90
52879;DHT22;38747;53.140;6.498;2022-10-17T14:10:42;15.60;99.90
52879;DHT22;38747;53.140;6.498;2022-10-17T14:13:20;15.60;99.90
52879;DHT22;38747;53.140;6.498;2022-10-17T14:15:46;15.50;99.90
52879;DHT22;38747;53.140;6.498;2022-10-17T14:18:28;15.50;99.90
52879;DHT22;38747;53.140;6.498;2022-10-17T14:20:54;15.60;99.90
52879;DHT22;38747;53.140;6.498;2022-10-17T14:26:09;15.60;99.90
52879;DHT22;38747;53.140;6.498;2022-10-17T14:28:36;15.60;99.90
52879;DHT22;38747;53.140;6.498;2022-10-17T14:31:11;15.50;99.90
52879;DHT22;38747;53.140;6.498;2022-10-17T14:33:42;15.50;99.90
52879;DHT22;38747;53.140;6.498;2022-10-17T14:36:08;15.50;99.90
52879;DHT22;38747;53.140;6.498;2022-10-17T14:38:34;15.50;99.90
52879;DHT22;38747;53.140;6.498;2022-10-17T14:41:05;15.50;99.90
52879;DHT22;38747;53.140;6.498;2022-10-17T14:43:33;15.50;99.90
52879;DHT22;38747;53.140;6.498;2022-10-17T14:46:00;15.50;99.90
52879;DHT22;38747;53.140;6.498;2022-10-17T14:48:27;15.50;99.90
52879;DHT22;38747;53.140;6.498;2022-10-17T14:51:09;15.50;99.90
52879;DHT22;38747;53.140;6.498;2022-10-17T14:53:36;15.50;99.90
52879;DHT22;38747;53.140;6.498;2022-10-17T14:56:19;15.50;99.90
52879;DHT22;38747;53.140;6.498;2022-10-17T14:58:45;15.50;99.90
52879;DHT22;38747;53.140;6.498;2022-10-17T15:01:10;15.50;99.90
52879;DHT22;38747;53.140;6.498;2022-10-17T15:03:36;15.50;99.90
52879;DHT22;38747;53.140;6.498;2022-10-17T15:08:53;15.50;99.90
52879;DHT22;38747;53.140;6.498;2022-10-17T15:11:19;15.50;99.90
52879;DHT22;38747;53.140;6.498;2022-10-17T15:13:44;15.50;99.90
52879;DHT22;38747;53.140;6.498;2022-10-17T15:16:20;15.50;99.90
52879;DHT22;38747;53.140;6.498;2022-10-17T15:18:47;15.50;99.90
52879;DHT22;38747;53.140;6.498;2022-10-17T15:21:14;15.50;99.90
52879;DHT22;38747;53.140;6.498;2022-10-17T15:23:40;15.50;99.90
52879;DHT22;38747;53.140;6.498;2022-10-17T15:26:19;15.50;99.90
52879;DHT22;38747;53.140;6.498;2022-10-17T15:28:45;15.50;99.90
52879;DHT22;38747;53.140;6.498;2022-10-17T15:31:13;15.50;99.90
52879;DHT22;38747;53.140;6.498;2022-10-17T15:33:39;15.50;99.90
52879;DHT22;38747;53.140;6.498;2022-10-17T15:36:27;15.50;99.90
52879;DHT22;38747;53.140;6.498;2022-10-17T15:38:58;15.50;99.90
52879;DHT22;38747;53.140;6.498;2022-10-17T15:41:25;15.40;99.90
52879;DHT22;38747;53.140;6.498;2022-10-17T15:43:51;15.30;99.90
52879;DHT22;38747;53.140;6.498;2022-10-17T15:46:20;15.30;99.90
52879;DHT22;38747;53.140;6.498;2022-10-17T15:48:48;15.30;99.90
52879;DHT22;38747;53.140;6.498;2022-10-17T15:51:14;15.20;99.90
52879;DHT22;38747;53.140;6.498;2022-10-17T15:53:40;15.10;99.90
52879;DHT22;38747;53.140;6.498;2022-10-17T15:56:07;15.10;99.90
52879;DHT22;38747;53.140;6.498;2022-10-17T15:58:38;15.10;99.90
52879;DHT22;38747;53.140;6.498;2022-10-17T16:01:15;15.10;99.90
52879;DHT22;38747;53.140;6.498;2022-10-17T16:03:43;15.00;99.90
52879;DHT22;38747;53.140;6.498;2022-10-17T16:06:11;15.00;99.90
52879;DHT22;38747;53.140;6.498;2022-10-17T16:08:37;15.00;99.90
52879;DHT22;38747;53.140;6.498;2022-10-17T16:11:02;14.90;99.90
52879;DHT22;38747;53.140;6.498;2022-10-17T16:13:28;14.90;99.90
52879;DHT22;38747;53.140;6.498;2022-10-17T16:15:54;14.90;99.90
52879;DHT22;38747;53.140;6.498;2022-10-17T16:18:19;14.90;99.90
52879;DHT22;38747;53.140;6.498;2022-10-17T16:20:46;14.90;99.90
52879;DHT22;38747;53.140;6.498;2022-10-17T16:23:12;14.80;99.90
52879;DHT22;38747;53.140;6.498;2022-10-17T16:25:38;14.70;99.90
52879;DHT22;38747;53.140;6.498;2022-10-17T16:28:04;14.70;99.90
52879;DHT22;38747;53.140;6.498;2022-10-17T16:30:33;14.70;99.90
52879;DHT22;38747;53.140;6.498;2022-10-17T16:32:59;14.70;99.90
52879;DHT22;38747;53.140;6.498;2022-10-17T16:35:29;14.70;99.90
52879;DHT22;38747;53.140;6.498;2022-10-17T16:37:55;14.60;99.90
52879;DHT22;38747;53.140;6.498;2022-10-17T16:40:22;14.60;99.90
52879;DHT22;38747;53.140;6.498;2022-10-17T16:42:47;14.60;99.90
52879;DHT22;38747;53.140;6.498;2022-10-17T16:45:19;14.50;99.90
52879;DHT22;38747;53.140;6.498;2022-10-17T16:47:45;14.50;99.90
52879;DHT22;38747;53.140;6.498;2022-10-17T16:50:12;14.50;99.90
52879;DHT22;38747;53.140;6.498;2022-10-17T16:52:38;14.50;99.90
52879;DHT22;38747;53.140;6.498;2022-10-17T16:55:04;14.50;99.90
52879;DHT22;38747;53.140;6.498;2022-10-17T16:57:29;14.50;99.90
52879;DHT22;38747;53.140;6.498;2022-10-17T16:59:55;14.40;99.90
52879;DHT22;38747;53.140;6.498;2022-10-17T17:02:21;14.40;99.90
52879;DHT22;38747;53.140;6.498;2022-10-17T17:04:46;14.40;99.90
52879;DHT22;38747;53.140;6.498;2022-10-17T17:07:12;14.40;99.90
52879;DHT22;38747;53.140;6.498;2022-10-17T17:09:38;14.30;99.90
52879;DHT22;38747;53.140;6.498;2022-10-17T17:12:04;14.30;99.90
52879;DHT22;38747;53.140;6.498;2022-10-17T17:14:30;14.30;99.90
52879;DHT22;38747;53.140;6.498;2022-10-17T17:16:56;14.30;99.90
52879;DHT22;38747;53.140;6.498;2022-10-17T17:19:21;14.30;99.90
52879;DHT22;38747;53.140;6.498;2022-10-17T17:21:47;14.20;99.90
52879;DHT22;38747;53.140;6.498;2022-10-17T17:24:16;14.20;99.90
52879;DHT22;38747;53.140;6.498;2022-10-17T17:26:42;14.20;99.90
52879;DHT22;38747;53.140;6.498;2022-10-17T17:29:08;14.20;99.90
52879;DHT22;38747;53.140;6.498;2022-10-17T17:31:36;14.20;99.90
52879;DHT22;38747;53.140;6.498;2022-10-17T17:34:03;14.20;99.90
52879;DHT22;38747;53.140;6.498;2022-10-17T17:36:32;14.20;99.90
52879;DHT22;38747;53.140;6.498;2022-10-17T17:39:00;14.20;99.90
52879;DHT22;38747;53.140;6.498;2022-10-17T17:41:26;14.10;99.90
52879;DHT22;38747;53.140;6.498;2022-10-17T17:43:53;14.10;99.90
52879;DHT22;38747;53.140;6.498;2022-10-17T17:46:20;14.20;99.90